createdAt,value
2019-05-06T00:00:13.978Z,12.10
2019-05-06T00:02:43.573Z,13.57
2019-05-06T00:05:15.944Z,15.33
2019-05-06T00:07:54.404Z,13.80
2019-05-06T00:10:27.520Z,12.80
2019-05-06T00:12:55.097Z,15.20
2019-05-06T00:15:24.570Z,13.57
2019-05-06T00:17:55.938Z,11.70
2019-05-06T00:20:24.309Z,12.03
2019-05-06T00:23:00.820Z,11.53
2019-05-06T00:25:36.120Z,11.00
2019-05-06T00:28:24.460Z,12.57
2019-05-06T00:31:12.942Z,15.43
2019-05-06T00:33:35.890Z,14.83
2019-05-06T00:36:04.739Z,14.43
2019-05-06T00:38:35.213Z,15.27
2019-05-06T00:41:05.194Z,14.30
2019-05-06T00:43:35.793Z,14.73
2019-05-06T00:46:04.691Z,13.53
2019-05-06T00:48:33.927Z,14.03
2019-05-06T00:51:04.482Z,15.20
2019-05-06T00:53:36.316Z,13.77
2019-05-06T00:56:04.542Z,13.83
2019-05-06T00:58:31.893Z,16.33
2019-05-06T01:01:00.028Z,17.53
2019-05-06T01:03:27.279Z,17.87
2019-05-06T01:05:54.559Z,15.03
2019-05-06T01:08:24.047Z,15.17
2019-05-06T01:10:54.241Z,14.70
2019-05-06T01:13:40.147Z,18.67
2019-05-06T01:16:08.477Z,17.87
2019-05-06T01:18:35.343Z,15.77
2019-05-06T01:21:09.036Z,16.47
2019-05-06T01:23:36.178Z,17.67
2019-05-06T01:26:04.180Z,13.83
2019-05-06T01:28:31.293Z,14.57
2019-05-06T01:31:04.261Z,17.77
2019-05-06T01:33:31.876Z,16.80
2019-05-06T01:36:04.524Z,15.40
2019-05-06T01:38:36.980Z,14.93
2019-05-06T01:41:24.378Z,18.23
2019-05-06T01:43:51.486Z,17.93
2019-05-06T01:46:18.421Z,16.70
2019-05-06T01:48:48.772Z,15.83
2019-05-06T01:51:17.449Z,18.20
2019-05-06T01:53:46.371Z,19.30
2019-05-06T01:56:14.552Z,17.33
2019-05-06T01:58:46.319Z,18.57
2019-05-06T02:01:14.765Z,17.27
2019-05-06T02:03:48.970Z,16.87
2019-05-06T02:06:16.203Z,17.57
2019-05-06T02:08:47.156Z,16.27
2019-05-06T02:11:15.010Z,20.17
2019-05-06T02:13:54.020Z,19.53
2019-05-06T02:16:21.068Z,17.77
2019-05-06T02:18:48.708Z,19.17
2019-05-06T02:21:24.521Z,16.37
2019-05-06T02:23:58.106Z,19.80
2019-05-06T02:26:26.853Z,17.93
2019-05-06T02:28:56.308Z,18.90
2019-05-06T02:31:54.633Z,14.80
2019-05-06T02:34:27.817Z,17.23
2019-05-06T02:37:11.266Z,14.57
2019-05-06T02:39:38.349Z,15.90
2019-05-06T02:42:06.793Z,15.53
2019-05-06T02:44:35.236Z,15.40
2019-05-06T02:47:14.657Z,15.57
2019-05-06T02:49:45.931Z,14.80
2019-05-06T02:52:14.168Z,14.77
2019-05-06T02:54:42.719Z,14.03
2019-05-06T02:57:13.349Z,15.67
2019-05-06T02:59:43.944Z,14.00
2019-05-06T03:02:14.298Z,15.57
2019-05-06T03:04:43.681Z,16.03
2019-05-06T03:07:14.730Z,16.90
2019-05-06T03:09:44.557Z,15.57
2019-05-06T03:12:13.957Z,20.40
2019-05-06T03:14:48.457Z,15.10
2019-05-06T03:17:17.386Z,17.43
2019-05-06T03:19:46.226Z,17.33
2019-05-06T03:22:43.775Z,17.53
2019-05-06T03:25:17.204Z,18.10
2019-05-06T03:27:46.925Z,16.43
2019-05-06T03:30:25.390Z,16.97
2019-05-06T03:33:28.207Z,16.50
2019-05-06T03:35:36.452Z,18.17
2019-05-06T03:38:09.905Z,15.83
2019-05-06T03:40:42.053Z,19.60
2019-05-06T03:43:07.962Z,21.00
2019-05-06T03:46:04.515Z,18.90
2019-05-06T03:48:37.880Z,17.97
2019-05-06T03:51:06.114Z,16.73
2019-05-06T03:53:34.726Z,19.07
2019-05-06T03:56:03.507Z,19.67
2019-05-06T03:58:34.762Z,18.17
2019-05-06T04:01:05.181Z,16.87
2019-05-06T04:03:45.199Z,21.37
2019-05-06T04:06:04.414Z,19.60
2019-05-06T04:08:34.175Z,17.80
2019-05-06T04:11:03.282Z,15.90
2019-05-06T04:13:33.204Z,17.47
2019-05-06T04:16:13.849Z,15.87
2019-05-06T04:18:53.512Z,16.73
2019-05-06T04:21:33.198Z,17.03
2019-05-06T04:24:28.553Z,19.57
2019-05-06T04:27:25.282Z,20.80
2019-05-06T04:29:54.300Z,14.60
2019-05-06T04:32:24.734Z,17.43
2019-05-06T04:34:53.434Z,15.73
2019-05-06T04:37:24.089Z,16.10
2019-05-06T04:39:53.268Z,18.40
2019-05-06T04:42:19.471Z,19.80
2019-05-06T04:44:48.465Z,15.97
2019-05-06T04:47:15.537Z,18.50
2019-05-06T04:49:43.755Z,16.87
2019-05-06T04:52:13.799Z,19.27
2019-05-06T04:54:40.162Z,19.40
2019-05-06T04:57:08.553Z,15.50
2019-05-06T04:59:35.710Z,18.00
2019-05-06T05:02:02.872Z,18.20
2019-05-06T05:04:32.444Z,16.70
2019-05-06T05:06:59.920Z,19.97
2019-05-06T05:09:32.367Z,17.10
2019-05-06T05:12:08.668Z,19.23
2019-05-06T05:14:51.808Z,18.67
2019-05-06T05:17:38.183Z,18.93
2019-05-06T05:20:06.955Z,20.57
2019-05-06T05:22:34.895Z,18.30
2019-05-06T05:25:03.499Z,18.57
2019-05-06T05:27:32.906Z,17.43
2019-05-06T05:30:01.951Z,21.33
2019-05-06T05:32:32.185Z,19.20
2019-05-06T05:35:02.025Z,17.33
2019-05-06T05:37:32.820Z,19.00
2019-05-06T05:40:02.825Z,19.20
2019-05-06T05:42:49.336Z,18.27
2019-05-06T05:45:16.841Z,17.53
2019-05-06T05:47:44.242Z,18.00
2019-05-06T05:50:24.259Z,17.70
2019-05-06T05:52:55.144Z,19.10
2019-05-06T05:55:57.345Z,17.57
2019-05-06T05:58:25.136Z,19.20
2019-05-06T06:00:53.868Z,16.93
2019-05-06T06:03:22.097Z,17.70
2019-05-06T06:05:49.708Z,18.83
2019-05-06T06:08:22.127Z,21.30
2019-05-06T06:10:56.675Z,21.00
2019-05-06T06:13:23.870Z,17.27
2019-05-06T06:16:08.952Z,18.93
2019-05-06T06:18:57.300Z,17.87
2019-05-06T06:21:36.810Z,19.20
2019-05-06T06:24:19.738Z,17.83
2019-05-06T06:26:47.115Z,20.27
2019-05-06T06:29:14.076Z,16.67
2019-05-06T06:31:49.529Z,14.27
2019-05-06T06:34:39.655Z,15.30
2019-05-06T06:37:44.555Z,18.60
2019-05-06T06:40:13.147Z,14.83
2019-05-06T06:42:42.686Z,15.13
2019-05-06T06:45:12.156Z,14.10
2019-05-06T06:47:43.506Z,15.73
2019-05-06T06:50:12.698Z,15.50
2019-05-06T06:52:43.990Z,12.30
2019-05-06T06:55:12.937Z,14.57
2019-05-06T06:57:53.181Z,14.30
2019-05-06T07:00:44.581Z,13.40
2019-05-06T07:03:16.690Z,12.97
2019-05-06T07:05:53.592Z,11.87
2019-05-06T07:08:34.361Z,12.80
2019-05-06T07:10:52.697Z,13.00
2019-05-06T07:13:20.253Z,11.97
2019-05-06T07:15:48.294Z,12.50
2019-05-06T07:18:15.976Z,9.10
2019-05-06T07:21:07.790Z,10.73
2019-05-06T07:23:36.188Z,15.77
2019-05-06T07:26:06.747Z,10.80
2019-05-06T07:28:33.966Z,9.80
2019-05-06T07:31:14.926Z,11.80
2019-05-06T07:33:29.876Z,13.40
2019-05-06T07:35:57.040Z,11.50
2019-05-06T07:38:25.438Z,12.30
2019-05-06T07:41:04.665Z,10.50
2019-05-06T07:43:48.220Z,11.07
2019-05-06T07:46:23.825Z,8.47
2019-05-06T07:48:51.954Z,11.43
2019-05-06T07:51:18.900Z,10.83
2019-05-06T07:53:48.513Z,7.93
2019-05-06T07:56:15.741Z,13.83
2019-05-06T07:58:43.937Z,9.53
2019-05-06T08:01:13.651Z,9.20
2019-05-06T08:03:42.773Z,10.60
2019-05-06T08:06:13.378Z,8.63
2019-05-06T08:08:43.038Z,9.47
2019-05-06T08:11:13.905Z,9.07
2019-05-06T08:13:43.200Z,8.30
2019-05-06T08:16:13.252Z,10.87
2019-05-06T08:18:42.350Z,8.50
2019-05-06T08:21:18.523Z,8.53
2019-05-06T08:23:47.572Z,8.00
2019-05-06T08:26:17.873Z,7.13
2019-05-06T08:28:45.260Z,7.97
2019-05-06T08:31:16.282Z,7.27
2019-05-06T08:33:43.554Z,6.50
2019-05-06T08:36:15.799Z,9.07
2019-05-06T08:38:56.307Z,7.13
2019-05-06T08:41:23.546Z,5.87
2019-05-06T08:43:52.705Z,6.73
2019-05-06T08:46:24.685Z,6.43
2019-05-06T08:48:52.531Z,9.00
2019-05-06T08:51:28.561Z,7.53
2019-05-06T08:54:03.277Z,8.93
2019-05-06T08:56:32.092Z,8.33
2019-05-06T08:58:59.627Z,9.73
2019-05-06T09:01:34.041Z,9.67
2019-05-06T09:04:09.418Z,7.53
2019-05-06T09:06:34.344Z,7.93
2019-05-06T09:09:02.394Z,7.83
2019-05-06T09:11:32.209Z,8.43
2019-05-06T09:14:03.371Z,6.70
2019-05-06T09:16:29.925Z,8.17
2019-05-06T09:18:56.989Z,7.23
2019-05-06T09:21:24.517Z,8.00
2019-05-06T09:23:53.128Z,9.37
2019-05-06T09:26:24.564Z,7.40
2019-05-06T09:28:58.599Z,6.87
2019-05-06T09:31:34.516Z,9.53
2019-05-06T09:34:09.840Z,7.17
2019-05-06T09:36:44.201Z,6.83
2019-05-06T09:39:08.388Z,9.57
2019-05-06T09:41:35.478Z,7.93
2019-05-06T09:44:03.515Z,7.50
2019-05-06T09:46:32.216Z,6.80
2019-05-06T09:49:22.982Z,9.37
2019-05-06T09:51:50.084Z,7.30
2019-05-06T09:54:26.651Z,5.47
2019-05-06T09:59:52.733Z,5.93
2019-05-06T10:02:19.840Z,5.07
2019-05-06T10:04:47.820Z,5.10
2019-05-06T10:32:48.099Z,10.17
2019-05-06T10:35:16.712Z,6.03
2019-05-06T10:38:14.725Z,6.70
2019-05-06T10:41:02.869Z,6.90
2019-05-06T10:44:03.270Z,7.27
2019-05-06T10:46:31.447Z,7.13
2019-05-06T10:48:58.412Z,7.10
2019-05-06T10:51:35.364Z,6.83
2019-05-06T10:54:03.153Z,7.83
2019-05-06T10:56:56.506Z,9.20
2019-05-06T10:59:33.608Z,6.87
2019-05-06T11:02:16.789Z,7.13
2019-05-06T11:04:43.690Z,6.87
2019-05-06T11:07:28.155Z,7.53
2019-05-06T11:09:42.790Z,8.67
2019-05-06T11:12:12.540Z,6.03
2019-05-06T11:14:41.177Z,4.80
2019-05-06T11:17:08.278Z,7.83
2019-05-06T11:19:37.968Z,5.63
2019-05-06T11:22:05.037Z,6.47
2019-05-06T11:24:36.059Z,5.80
2019-05-06T11:27:03.621Z,5.60
2019-05-06T11:29:37.137Z,5.33
2019-05-06T11:32:23.856Z,6.23
2019-05-06T11:35:04.037Z,5.07
2019-05-06T11:37:47.010Z,4.37
2019-05-06T11:40:08.648Z,4.17
2019-05-06T11:42:37.658Z,4.40
2019-05-06T11:45:05.735Z,6.10
2019-05-06T11:47:37.830Z,6.40
2019-05-06T11:50:07.288Z,5.17
2019-05-06T11:52:35.650Z,6.03
2019-05-06T11:55:03.463Z,6.30
2019-05-06T11:57:32.520Z,6.43
2019-05-06T12:00:04.603Z,4.80
2019-05-06T12:02:32.988Z,6.30
2019-05-06T12:05:02.498Z,6.47
2019-05-06T12:07:29.645Z,5.33
2019-05-06T12:09:59.665Z,6.47
2019-05-06T12:12:26.816Z,6.70
2019-05-06T12:14:53.938Z,7.20
2019-05-06T12:17:22.352Z,6.03
2019-05-06T12:19:49.513Z,7.23
2019-05-06T12:22:22.996Z,7.53
2019-05-06T12:24:52.350Z,5.63
2019-05-06T12:27:39.890Z,5.10
2019-05-06T12:30:07.266Z,4.20
2019-05-06T12:32:43.376Z,5.10
2019-05-06T12:35:12.478Z,4.83
2019-05-06T12:37:43.991Z,4.73
2019-05-06T12:40:12.514Z,5.83
2019-05-06T12:42:47.562Z,3.33
2019-05-06T12:45:37.133Z,4.50
2019-05-06T12:48:08.586Z,4.57
2019-05-06T12:50:35.742Z,4.17
2019-05-06T12:53:04.351Z,4.60
2019-05-06T12:55:33.428Z,5.43
2019-05-06T12:58:04.072Z,4.83
2019-05-06T13:00:32.813Z,3.57
2019-05-06T13:03:02.579Z,4.27
2019-05-06T13:05:31.570Z,4.50
2019-05-06T13:07:59.154Z,4.43
2019-05-06T13:10:27.505Z,2.60
2019-05-06T13:13:05.005Z,4.17
2019-05-06T13:15:32.588Z,4.03
2019-05-06T13:18:06.410Z,3.87
2019-05-06T13:20:34.192Z,2.87
2019-05-06T13:23:09.998Z,4.03
2019-05-06T13:25:36.324Z,4.47
2019-05-06T13:28:07.968Z,3.57
2019-05-06T13:30:36.080Z,6.90
2019-05-06T13:33:28.585Z,4.97
2019-05-06T13:35:55.862Z,3.60
2019-05-06T13:38:22.836Z,4.50
2019-05-06T13:40:54.660Z,2.60
2019-05-06T13:43:37.933Z,3.43
2019-05-06T13:46:13.081Z,2.77
2019-05-06T13:48:57.319Z,4.13
2019-05-06T13:51:32.193Z,3.73
2019-05-06T13:54:02.397Z,3.40
2019-05-06T13:56:33.267Z,3.83
2019-05-06T13:59:01.518Z,3.53
2019-05-06T14:01:45.128Z,3.87
2019-05-06T14:04:13.810Z,2.83
2019-05-06T14:06:43.228Z,3.53
2019-05-06T14:09:28.631Z,3.10
2019-05-06T14:11:42.949Z,3.93
2019-05-06T14:14:13.676Z,5.27
2019-05-06T14:16:42.654Z,2.90
2019-05-06T14:19:14.409Z,2.50
2019-05-06T14:21:43.234Z,3.53
2019-05-06T14:24:16.933Z,2.80
2019-05-06T14:26:57.395Z,4.43
2019-05-06T14:29:38.752Z,4.37
2019-05-06T14:32:05.965Z,3.20
2019-05-06T14:34:34.447Z,2.57
2019-05-06T14:37:02.240Z,3.47
2019-05-06T14:39:49.995Z,2.33
2019-05-06T14:42:04.579Z,3.73
2019-05-06T14:44:36.063Z,2.43
2019-05-06T14:47:38.573Z,3.60
2019-05-06T14:50:06.240Z,5.93
2019-05-06T14:52:36.723Z,3.47
2019-05-06T14:55:17.405Z,3.40
2019-05-06T14:57:44.533Z,4.57
2019-05-06T15:00:15.468Z,4.57
2019-05-06T15:02:42.903Z,5.53
2019-05-06T15:05:13.006Z,2.80
2019-05-06T15:07:41.969Z,4.10
2019-05-06T15:10:20.392Z,3.10
2019-05-06T15:12:42.642Z,4.80
2019-05-06T15:15:29.486Z,4.07
2019-05-06T15:18:02.896Z,3.63
2019-05-06T15:20:30.060Z,3.73
2019-05-06T15:23:04.315Z,3.50
2019-05-06T15:25:32.679Z,4.47
2019-05-06T15:28:02.580Z,5.13
2019-05-06T15:30:40.358Z,3.10
2019-05-06T15:33:09.657Z,4.10
2019-05-06T15:35:55.560Z,5.27
2019-05-06T15:38:26.628Z,3.43
2019-05-06T15:40:53.706Z,3.07
2019-05-06T15:43:23.364Z,4.37
2019-05-06T15:45:52.045Z,3.07
2019-05-06T15:48:24.203Z,5.50
2019-05-06T15:50:53.274Z,3.37
2019-05-06T15:53:26.465Z,4.00
2019-05-06T15:55:53.678Z,3.70
2019-05-06T15:58:24.989Z,3.17
2019-05-06T16:00:53.127Z,2.93
2019-05-06T16:03:25.150Z,3.07
2019-05-06T16:05:54.556Z,4.27
2019-05-06T16:08:24.601Z,5.67
2019-05-06T16:10:58.115Z,2.93
2019-05-06T16:13:24.830Z,4.30
2019-05-06T16:15:53.174Z,3.13
2019-05-06T16:18:20.317Z,3.43
2019-05-06T16:20:48.180Z,3.27
2019-05-06T16:23:24.456Z,4.80
2019-05-06T16:25:52.384Z,5.80
2019-05-06T16:28:22.249Z,4.33
2019-05-06T16:30:50.064Z,4.70
2019-05-06T16:33:18.816Z,3.10
2019-05-06T16:35:49.280Z,4.80
2019-05-06T16:38:16.268Z,3.60
2019-05-06T16:40:45.447Z,4.03
2019-05-06T16:43:15.489Z,3.27
2019-05-06T16:45:42.851Z,3.17
2019-05-06T16:48:12.957Z,3.20
2019-05-06T16:50:42.914Z,3.40
2019-05-06T16:53:12.218Z,3.97
2019-05-06T16:56:13.135Z,4.53
2019-05-06T16:58:47.045Z,3.57
2019-05-06T17:01:15.226Z,3.47
2019-05-06T17:03:48.821Z,3.90
2019-05-06T17:06:23.099Z,4.73
2019-05-06T17:08:53.536Z,3.50
2019-05-06T17:11:28.040Z,2.73
2019-05-06T17:13:54.061Z,4.17
2019-05-06T17:16:22.251Z,3.73
2019-05-06T17:18:56.830Z,3.97
2019-05-06T17:21:23.445Z,4.30
2019-05-06T17:23:55.281Z,3.47
2019-05-06T17:26:22.612Z,4.87
2019-05-06T17:29:05.254Z,5.00
2019-05-06T17:32:07.497Z,5.37
2019-05-06T17:34:38.331Z,4.73
2019-05-06T17:37:13.012Z,3.20
2019-05-06T17:39:42.473Z,3.77
2019-05-06T17:42:09.834Z,3.27
2019-05-06T17:44:37.717Z,3.57
2019-05-06T17:47:16.452Z,6.17
2019-05-06T17:49:43.785Z,6.07
2019-05-06T17:52:17.305Z,5.10
2019-05-06T17:54:44.544Z,4.07
2019-05-06T17:57:14.478Z,5.30
2019-05-06T17:59:43.552Z,3.70
2019-05-06T18:02:19.093Z,4.13
2019-05-06T18:04:46.022Z,11.07
2019-05-06T18:07:15.669Z,7.10
2019-05-06T18:09:42.999Z,4.03
2019-05-06T18:12:20.180Z,5.50
2019-05-06T18:14:48.766Z,4.30
2019-05-06T18:17:27.676Z,4.53
2019-05-06T18:20:03.016Z,3.70
2019-05-06T18:22:32.786Z,4.70
2019-05-06T18:25:03.105Z,4.80
2019-05-06T18:27:32.571Z,3.50
2019-05-06T18:30:14.321Z,4.33
2019-05-06T18:32:33.269Z,5.70
2019-05-06T18:35:03.319Z,6.90
2019-05-06T18:37:33.338Z,4.27
2019-05-06T18:40:03.704Z,4.63
2019-05-06T18:42:32.788Z,5.50
2019-05-06T18:45:04.958Z,4.73
2019-05-06T18:47:33.091Z,4.83
2019-05-06T18:50:03.475Z,7.33
2019-05-06T18:52:32.255Z,8.67
2019-05-06T18:55:05.301Z,7.80
2019-05-06T18:57:33.144Z,6.53
2019-05-06T19:00:05.549Z,6.83
2019-05-06T19:02:34.718Z,6.10
2019-05-06T19:05:17.725Z,6.27
2019-05-06T19:07:47.329Z,4.93
2019-05-06T19:10:27.113Z,5.00
2019-05-06T19:12:54.156Z,4.03
2019-05-06T19:15:25.762Z,4.77
2019-05-06T19:17:52.887Z,4.83
2019-05-06T19:20:21.951Z,5.67
2019-05-06T19:22:50.277Z,5.57
2019-05-06T19:25:18.108Z,4.33
2019-05-06T19:27:49.201Z,6.87
2019-05-06T19:30:16.820Z,5.77
2019-05-06T19:32:47.503Z,6.37
2019-05-06T19:35:14.831Z,4.40
2019-05-06T19:37:41.846Z,6.27
2019-05-06T19:40:12.084Z,4.90
2019-05-06T19:42:53.332Z,47.37
2019-05-06T19:45:22.418Z,5.57
2019-05-06T19:47:52.358Z,5.80
2019-05-06T19:50:23.538Z,6.27
2019-05-06T19:52:52.833Z,8.60
2019-05-06T19:55:20.253Z,6.30
2019-05-06T19:57:53.449Z,6.43
2019-05-06T20:00:22.862Z,5.60
2019-05-06T20:02:53.642Z,5.83
2019-05-06T20:05:31.986Z,5.77
2019-05-06T20:08:23.158Z,6.53
2019-05-06T20:11:19.220Z,5.87
2019-05-06T20:13:46.107Z,7.00
2019-05-06T20:16:13.994Z,6.73
2019-05-06T20:18:42.583Z,7.17
2019-05-06T20:21:13.449Z,7.30
2019-05-06T20:23:42.501Z,7.73
2019-05-06T20:26:14.197Z,12.63
2019-05-06T20:28:47.264Z,13.10
2019-05-06T20:31:16.807Z,6.60
2019-05-06T20:33:43.779Z,8.17
2019-05-06T20:36:15.364Z,9.10
2019-05-06T20:38:42.459Z,10.00
2019-05-06T20:41:09.790Z,9.13
2019-05-06T20:43:37.481Z,7.53
2019-05-06T20:46:04.856Z,7.67
2019-05-06T20:48:36.673Z,7.80
2019-05-06T20:51:03.908Z,8.60
2019-05-06T20:53:32.534Z,7.50
2019-05-06T20:55:59.978Z,7.37
2019-05-06T20:58:26.827Z,9.33
2019-05-06T21:00:58.252Z,7.97
2019-05-06T21:03:25.348Z,8.43
2019-05-06T21:05:52.347Z,8.83
2019-05-06T21:08:21.935Z,8.57
2019-05-06T21:10:49.948Z,9.77
2019-05-06T21:13:29.670Z,9.20
2019-05-06T21:15:49.647Z,8.47
2019-05-06T21:18:23.018Z,11.83
2019-05-06T21:20:50.055Z,9.47
2019-05-06T21:23:22.808Z,9.10
2019-05-06T21:25:52.143Z,10.57
2019-05-06T21:28:20.352Z,11.77
2019-05-06T21:30:47.637Z,10.80
2019-05-06T21:33:14.785Z,9.87
2019-05-06T21:35:43.665Z,10.57
2019-05-06T21:38:12.130Z,11.77
2019-05-06T21:40:43.322Z,10.43
2019-05-06T21:43:10.292Z,10.97
2019-05-06T21:45:46.007Z,10.87
2019-05-06T21:48:13.795Z,13.67
2019-05-06T21:50:44.266Z,10.40
2019-05-06T21:53:14.683Z,10.20
2019-05-06T21:55:44.834Z,12.20
2019-05-06T21:58:12.489Z,12.03
2019-05-06T22:00:46.849Z,10.03
2019-05-06T22:03:14.338Z,9.80
2019-05-06T22:05:45.881Z,11.20
2019-05-06T22:08:13.012Z,13.63
2019-05-06T22:10:44.939Z,13.03
2019-05-06T22:13:14.677Z,12.03
2019-05-06T22:15:45.897Z,11.10
2019-05-06T22:18:13.200Z,11.40
2019-05-06T22:20:58.900Z,11.30
2019-05-06T22:23:48.683Z,11.97
2019-05-06T22:26:16.394Z,13.33
2019-05-06T22:28:47.607Z,11.47
2019-05-06T22:31:14.793Z,11.73
2019-05-06T22:33:42.845Z,11.33
2019-05-06T22:36:13.218Z,10.93
2019-05-06T22:38:41.961Z,12.63
2019-05-06T22:41:11.454Z,11.03
2019-05-06T22:43:38.404Z,12.97
2019-05-06T22:46:09.525Z,10.50
2019-05-06T22:48:36.744Z,10.57
2019-05-06T22:51:03.787Z,11.07
2019-05-06T22:53:32.849Z,15.07
2019-05-06T22:56:02.702Z,13.03
2019-05-06T22:58:32.841Z,10.60
2019-05-06T23:01:04.452Z,12.33
2019-05-06T23:03:34.625Z,9.53
2019-05-06T23:06:02.522Z,10.83
2019-05-06T23:08:32.640Z,9.80
2019-05-06T23:10:59.515Z,10.03
2019-05-06T23:13:26.476Z,10.63
2019-05-06T23:15:55.092Z,10.87
2019-05-06T23:18:22.295Z,9.83
2019-05-06T23:20:54.144Z,10.30
2019-05-06T23:23:22.243Z,11.20
2019-05-06T23:26:09.052Z,13.43
2019-05-06T23:28:38.302Z,11.97
2019-05-06T23:31:05.382Z,10.83
2019-05-06T23:33:36.130Z,11.30
2019-05-06T23:36:03.474Z,12.33
2019-05-06T23:39:07.405Z,10.37
2019-05-06T23:42:12.135Z,11.80
2019-05-06T23:45:18.714Z,12.40
2019-05-06T23:48:22.950Z,10.83
2019-05-06T23:51:26.977Z,10.93
2019-05-06T23:54:32.836Z,11.13
2019-05-06T23:57:02.822Z,9.53
2019-05-06T23:59:32.080Z,10.77
